sensor_id;sensor_type;location;lat;lon;timestamp;temperature;humidity
33865;DHT22;20159;51.072;13.526;2023-01-01T00:01:13;18.20;64.70
33865;DHT22;20159;51.072;13.526;2023-01-01T00:03:39;18.20;64.60
33865;DHT22;20159;51.072;13.526;2023-01-01T00:06:10;18.20;64.50
33865;DHT22;20159;51.072;13.526;2023-01-01T00:08:36;18.20;64.70
33865;DHT22;20159;51.072;13.526;2023-01-01T00:11:03;18.20;64.20
33865;DHT22;20159;51.072;13.526;2023-01-01T00:13:29;18.20;64.30
33865;DHT22;20159;51.072;13.526;2023-01-01T00:15:55;18.20;64.10
33865;DHT22;20159;51.072;13.526;2023-01-01T00:18:21;18.20;64.30
33865;DHT22;20159;51.072;13.526;2023-01-01T00:20:46;18.30;64.20
33865;DHT22;20159;51.072;13.526;2023-01-01T00:23:12;18.20;64.00
33865;DHT22;20159;51.072;13.526;2023-01-01T00:25:40;18.30;64.00
33865;DHT22;20159;51.072;13.526;2023-01-01T00:28:06;18.30;63.90
33865;DHT22;20159;51.072;13.526;2023-01-01T00:30:34;18.30;63.80
33865;DHT22;20159;51.072;13.526;2023-01-01T00:32:59;18.30;63.90
33865;DHT22;20159;51.072;13.526;2023-01-01T00:35:25;18.30;63.60
33865;DHT22;20159;51.072;13.526;2023-01-01T00:37:54;18.30;63.40
33865;DHT22;20159;51.072;13.526;2023-01-01T00:40:20;18.30;63.40
33865;DHT22;20159;51.072;13.526;2023-01-01T00:42:46;18.30;63.30
33865;DHT22;20159;51.072;13.526;2023-01-01T00:45:11;18.30;62.90
33865;DHT22;20159;51.072;13.526;2023-01-01T00:47:40;18.30;63.40
33865;DHT22;20159;51.072;13.526;2023-01-01T00:50:05;18.30;63.00
33865;DHT22;20159;51.072;13.526;2023-01-01T00:52:31;18.30;63.10
33865;DHT22;20159;51.072;13.526;2023-01-01T00:54:56;18.30;63.80
33865;DHT22;20159;51.072;13.526;2023-01-01T00:57:22;18.30;63.10
33865;DHT22;20159;51.072;13.526;2023-01-01T00:59:47;18.20;63.10
33865;DHT22;20159;51.072;13.526;2023-01-01T01:02:13;18.20;62.90
33865;DHT22;20159;51.072;13.526;2023-01-01T01:04:39;18.20;62.90
33865;DHT22;20159;51.072;13.526;2023-01-01T01:07:04;18.20;63.00
33865;DHT22;20159;51.072;13.526;2023-01-01T01:09:30;18.20;63.10
33865;DHT22;20159;51.072;13.526;2023-01-01T01:11:55;18.20;62.80
33865;DHT22;20159;51.072;13.526;2023-01-01T01:14:20;18.10;62.80
33865;DHT22;20159;51.072;13.526;2023-01-01T01:16:46;18.10;62.60
33865;DHT22;20159;51.072;13.526;2023-01-01T01:19:12;18.10;62.90
33865;DHT22;20159;51.072;13.526;2023-01-01T01:21:43;18.10;62.60
33865;DHT22;20159;51.072;13.526;2023-01-01T01:24:09;18.00;62.50
33865;DHT22;20159;51.072;13.526;2023-01-01T01:26:34;18.00;62.50
33865;DHT22;20159;51.072;13.526;2023-01-01T01:29:03;18.00;62.60
33865;DHT22;20159;51.072;13.526;2023-01-01T01:31:30;18.00;62.70
33865;DHT22;20159;51.072;13.526;2023-01-01T01:33:57;17.90;62.40
33865;DHT22;20159;51.072;13.526;2023-01-01T01:36:23;17.90;62.80
33865;DHT22;20159;51.072;13.526;2023-01-01T01:38:49;17.90;62.70
33865;DHT22;20159;51.072;13.526;2023-01-01T01:41:17;17.80;62.50
33865;DHT22;20159;51.072;13.526;2023-01-01T01:43:49;17.80;62.70
33865;DHT22;20159;51.072;13.526;2023-01-01T01:46:44;17.80;62.70
33865;DHT22;20159;51.072;13.526;2023-01-01T01:49:15;17.70;63.00
33865;DHT22;20159;51.072;13.526;2023-01-01T01:51:43;17.70;63.00
33865;DHT22;20159;51.072;13.526;2023-01-01T01:54:13;17.60;62.80
33865;DHT22;20159;51.072;13.526;2023-01-01T01:56:47;17.50;63.10
33865;DHT22;20159;51.072;13.526;2023-01-01T01:59:15;17.50;62.90
33865;DHT22;20159;51.072;13.526;2023-01-01T02:01:41;17.50;63.30
33865;DHT22;20159;51.072;13.526;2023-01-01T02:04:07;17.40;63.40
33865;DHT22;20159;51.072;13.526;2023-01-01T02:06:34;17.40;63.70
33865;DHT22;20159;51.072;13.526;2023-01-01T02:09:02;17.40;63.60
33865;DHT22;20159;51.072;13.526;2023-01-01T02:11:29;17.30;63.40
33865;DHT22;20159;51.072;13.526;2023-01-01T02:13:55;17.20;63.50
33865;DHT22;20159;51.072;13.526;2023-01-01T02:16:31;17.20;63.60
33865;DHT22;20159;51.072;13.526;2023-01-01T02:21:53;17.10;63.70
33865;DHT22;20159;51.072;13.526;2023-01-01T02:29:47;17.00;63.70
33865;DHT22;20159;51.072;13.526;2023-01-01T02:32:21;17.00;63.70
33865;DHT22;20159;51.072;13.526;2023-01-01T02:35:01;16.90;63.50
33865;DHT22;20159;51.072;13.526;2023-01-01T02:37:50;16.90;63.50
33865;DHT22;20159;51.072;13.526;2023-01-01T02:40:18;16.90;64.00
33865;DHT22;20159;51.072;13.526;2023-01-01T02:42:45;16.90;63.80
33865;DHT22;20159;51.072;13.526;2023-01-01T02:45:11;16.90;64.00
33865;DHT22;20159;51.072;13.526;2023-01-01T02:47:37;16.80;63.90
33865;DHT22;20159;51.072;13.526;2023-01-01T02:50:14;16.80;64.00
33865;DHT22;20159;51.072;13.526;2023-01-01T02:52:51;16.80;64.00
33865;DHT22;20159;51.072;13.526;2023-01-01T02:55:32;18.30;64.80
33865;DHT22;20159;51.072;13.526;2023-01-01T03:01:39;16.70;63.70
33865;DHT22;20159;51.072;13.526;2023-01-01T03:06:55;16.70;63.30
33865;DHT22;20159;51.072;13.526;2023-01-01T03:09:56;16.70;63.50
33865;DHT22;20159;51.072;13.526;2023-01-01T03:12:31;16.70;63.30
33865;DHT22;20159;51.072;13.526;2023-01-01T03:15:25;16.70;63.50
33865;DHT22;20159;51.072;13.526;2023-01-01T03:20:32;16.70;63.40
33865;DHT22;20159;51.072;13.526;2023-01-01T03:23:03;16.70;63.40
33865;DHT22;20159;51.072;13.526;2023-01-01T03:25:33;16.70;63.60
33865;DHT22;20159;51.072;13.526;2023-01-01T03:28:13;16.60;63.10
33865;DHT22;20159;51.072;13.526;2023-01-01T03:30:39;16.60;63.00
33865;DHT22;20159;51.072;13.526;2023-01-01T03:33:37;16.60;63.20
33865;DHT22;20159;51.072;13.526;2023-01-01T03:38:42;16.60;63.40
33865;DHT22;20159;51.072;13.526;2023-01-01T03:41:15;16.50;63.00
33865;DHT22;20159;51.072;13.526;2023-01-01T03:43:48;16.50;63.00
33865;DHT22;20159;51.072;13.526;2023-01-01T03:46:17;16.50;63.40
33865;DHT22;20159;51.072;13.526;2023-01-01T03:48:43;16.50;63.40
33865;DHT22;20159;51.072;13.526;2023-01-01T03:57:23;16.40;63.60
33865;DHT22;20159;51.072;13.526;2023-01-01T04:00:12;16.40;63.80
33865;DHT22;20159;51.072;13.526;2023-01-01T04:03:08;16.30;63.20
33865;DHT22;20159;51.072;13.526;2023-01-01T04:05:39;16.30;63.70
33865;DHT22;20159;51.072;13.526;2023-01-01T04:08:05;16.30;63.60
33865;DHT22;20159;51.072;13.526;2023-01-01T04:10:33;16.30;63.80
33865;DHT22;20159;51.072;13.526;2023-01-01T04:13:02;16.20;63.60
33865;DHT22;20159;51.072;13.526;2023-01-01T04:15:28;16.20;63.70
33865;DHT22;20159;51.072;13.526;2023-01-01T04:17:54;16.20;63.80
33865;DHT22;20159;51.072;13.526;2023-01-01T04:20:20;16.20;64.30
33865;DHT22;20159;51.072;13.526;2023-01-01T04:22:46;16.20;63.80
33865;DHT22;20159;51.072;13.526;2023-01-01T04:25:13;16.30;63.50
33865;DHT22;20159;51.072;13.526;2023-01-01T04:27:39;16.30;63.60
33865;DHT22;20159;51.072;13.526;2023-01-01T04:30:07;16.20;63.60
33865;DHT22;20159;51.072;13.526;2023-01-01T04:32:33;16.30;63.40
33865;DHT22;20159;51.072;13.526;2023-01-01T04:34:59;16.30;63.30
33865;DHT22;20159;51.072;13.526;2023-01-01T04:37:24;16.30;63.40
33865;DHT22;20159;51.072;13.526;2023-01-01T04:39:51;16.30;63.60
33865;DHT22;20159;51.072;13.526;2023-01-01T04:42:16;16.30;63.40
33865;DHT22;20159;51.072;13.526;2023-01-01T04:44:42;16.30;63.50
33865;DHT22;20159;51.072;13.526;2023-01-01T04:47:07;16.30;63.70
33865;DHT22;20159;51.072;13.526;2023-01-01T04:49:33;16.30;63.40
33865;DHT22;20159;51.072;13.526;2023-01-01T04:51:58;16.30;63.50
33865;DHT22;20159;51.072;13.526;2023-01-01T04:54:24;16.30;63.80
33865;DHT22;20159;51.072;13.526;2023-01-01T04:56:50;16.30;63.50
33865;DHT22;20159;51.072;13.526;2023-01-01T04:59:15;16.30;63.30
33865;DHT22;20159;51.072;13.526;2023-01-01T05:01:41;16.30;63.40
33865;DHT22;20159;51.072;13.526;2023-01-01T05:04:06;16.30;64.00
33865;DHT22;20159;51.072;13.526;2023-01-01T05:06:32;16.30;63.40
33865;DHT22;20159;51.072;13.526;2023-01-01T05:08:57;16.30;63.40
33865;DHT22;20159;51.072;13.526;2023-01-01T05:11:27;16.30;63.30
33865;DHT22;20159;51.072;13.526;2023-01-01T05:13:55;16.20;63.30
33865;DHT22;20159;51.072;13.526;2023-01-01T05:16:30;16.20;63.40
33865;DHT22;20159;51.072;13.526;2023-01-01T05:18:56;16.20;63.50
33865;DHT22;20159;51.072;13.526;2023-01-01T05:21:26;16.20;63.70
33865;DHT22;20159;51.072;13.526;2023-01-01T05:23:56;16.20;63.60
33865;DHT22;20159;51.072;13.526;2023-01-01T05:26:25;16.30;63.70
33865;DHT22;20159;51.072;13.526;2023-01-01T05:28:52;16.30;63.50
33865;DHT22;20159;51.072;13.526;2023-01-01T05:31:20;16.30;63.70
33865;DHT22;20159;51.072;13.526;2023-01-01T05:33:46;16.30;63.70
33865;DHT22;20159;51.072;13.526;2023-01-01T05:36:24;16.30;63.60
33865;DHT22;20159;51.072;13.526;2023-01-01T05:38:50;16.30;63.50
33865;DHT22;20159;51.072;13.526;2023-01-01T05:41:17;16.20;63.40
33865;DHT22;20159;51.072;13.526;2023-01-01T05:43:43;16.20;63.30
33865;DHT22;20159;51.072;13.526;2023-01-01T05:46:11;16.20;63.40
33865;DHT22;20159;51.072;13.526;2023-01-01T05:48:37;16.20;63.60
33865;DHT22;20159;51.072;13.526;2023-01-01T05:51:09;16.20;63.60
33865;DHT22;20159;51.072;13.526;2023-01-01T05:53:34;16.20;63.70
33865;DHT22;20159;51.072;13.526;2023-01-01T05:56:01;16.20;63.50
33865;DHT22;20159;51.072;13.526;2023-01-01T05:58:27;16.20;63.40
33865;DHT22;20159;51.072;13.526;2023-01-01T06:00:53;16.20;63.50
33865;DHT22;20159;51.072;13.526;2023-01-01T06:03:19;16.20;63.70
33865;DHT22;20159;51.072;13.526;2023-01-01T06:05:45;16.20;63.60
33865;DHT22;20159;51.072;13.526;2023-01-01T06:08:11;16.20;63.60
33865;DHT22;20159;51.072;13.526;2023-01-01T06:10:37;16.20;63.70
33865;DHT22;20159;51.072;13.526;2023-01-01T06:13:02;16.20;63.70
33865;DHT22;20159;51.072;13.526;2023-01-01T06:15:28;16.20;63.70
33865;DHT22;20159;51.072;13.526;2023-01-01T06:17:54;16.20;63.60
33865;DHT22;20159;51.072;13.526;2023-01-01T06:20:19;16.20;63.70
33865;DHT22;20159;51.072;13.526;2023-01-01T06:22:45;16.10;63.80
33865;DHT22;20159;51.072;13.526;2023-01-01T06:25:12;16.20;63.80
33865;DHT22;20159;51.072;13.526;2023-01-01T06:27:38;16.20;64.00
33865;DHT22;20159;51.072;13.526;2023-01-01T06:30:04;16.10;63.90
33865;DHT22;20159;51.072;13.526;2023-01-01T06:32:30;16.10;64.00
33865;DHT22;20159;51.072;13.526;2023-01-01T06:34:56;16.10;64.00
33865;DHT22;20159;51.072;13.526;2023-01-01T06:37:21;16.10;64.00
33865;DHT22;20159;51.072;13.526;2023-01-01T06:39:47;16.10;64.20
33865;DHT22;20159;51.072;13.526;2023-01-01T06:42:12;16.10;64.40
33865;DHT22;20159;51.072;13.526;2023-01-01T06:44:38;16.10;64.40
33865;DHT22;20159;51.072;13.526;2023-01-01T06:47:03;16.10;64.90
33865;DHT22;20159;51.072;13.526;2023-01-01T06:49:29;16.10;64.60
33865;DHT22;20159;51.072;13.526;2023-01-01T06:51:54;16.10;64.50
33865;DHT22;20159;51.072;13.526;2023-01-01T06:54:20;16.10;64.70
33865;DHT22;20159;51.072;13.526;2023-01-01T06:56:45;16.00;64.70
33865;DHT22;20159;51.072;13.526;2023-01-01T06:59:11;16.00;64.90
33865;DHT22;20159;51.072;13.526;2023-01-01T07:01:37;16.00;64.80
33865;DHT22;20159;51.072;13.526;2023-01-01T07:04:11;16.00;65.00
33865;DHT22;20159;51.072;13.526;2023-01-01T07:06:37;16.00;65.10
33865;DHT22;20159;51.072;13.526;2023-01-01T07:09:04;16.00;65.20
33865;DHT22;20159;51.072;13.526;2023-01-01T07:11:31;18.00;66.30
33865;DHT22;20159;51.072;13.526;2023-01-01T07:13:57;16.00;65.50
33865;DHT22;20159;51.072;13.526;2023-01-01T07:16:23;16.00;65.60
33865;DHT22;20159;51.072;13.526;2023-01-01T07:18:48;15.90;65.70
33865;DHT22;20159;51.072;13.526;2023-01-01T07:21:42;16.00;65.80
33865;DHT22;20159;51.072;13.526;2023-01-01T07:24:13;15.90;66.00
33865;DHT22;20159;51.072;13.526;2023-01-01T07:26:40;15.90;65.90
33865;DHT22;20159;51.072;13.526;2023-01-01T07:29:06;15.90;66.10
33865;DHT22;20159;51.072;13.526;2023-01-01T07:31:37;15.90;66.20
33865;DHT22;20159;51.072;13.526;2023-01-01T07:34:03;15.90;66.20
33865;DHT22;20159;51.072;13.526;2023-01-01T07:36:29;16.00;66.40
33865;DHT22;20159;51.072;13.526;2023-01-01T07:38:55;16.00;66.40
33865;DHT22;20159;51.072;13.526;2023-01-01T07:41:21;16.00;66.60
33865;DHT22;20159;51.072;13.526;2023-01-01T07:43:46;16.10;66.50
33865;DHT22;20159;51.072;13.526;2023-01-01T07:46:12;16.10;66.70
33865;DHT22;20159;51.072;13.526;2023-01-01T07:48:41;16.20;66.40
33865;DHT22;20159;51.072;13.526;2023-01-01T07:51:06;16.20;66.60
33865;DHT22;20159;51.072;13.526;2023-01-01T07:53:31;16.30;66.30
33865;DHT22;20159;51.072;13.526;2023-01-01T07:55:57;16.40;66.20
33865;DHT22;20159;51.072;13.526;2023-01-01T07:58:22;16.50;66.00
33865;DHT22;20159;51.072;13.526;2023-01-01T08:00:48;16.50;66.00
33865;DHT22;20159;51.072;13.526;2023-01-01T08:03:14;16.50;66.00
33865;DHT22;20159;51.072;13.526;2023-01-01T08:05:40;16.60;65.50
33865;DHT22;20159;51.072;13.526;2023-01-01T08:08:06;16.60;65.40
33865;DHT22;20159;51.072;13.526;2023-01-01T08:10:31;16.70;65.40
33865;DHT22;20159;51.072;13.526;2023-01-01T08:13:01;16.70;65.20
33865;DHT22;20159;51.072;13.526;2023-01-01T08:15:27;16.80;64.70
33865;DHT22;20159;51.072;13.526;2023-01-01T08:17:59;16.90;65.70
33865;DHT22;20159;51.072;13.526;2023-01-01T08:20:26;16.90;65.00
33865;DHT22;20159;51.072;13.526;2023-01-01T08:22:52;17.00;65.20
33865;DHT22;20159;51.072;13.526;2023-01-01T08:25:17;17.10;65.00
33865;DHT22;20159;51.072;13.526;2023-01-01T08:27:43;17.20;65.20
33865;DHT22;20159;51.072;13.526;2023-01-01T08:30:11;17.30;64.60
33865;DHT22;20159;51.072;13.526;2023-01-01T08:32:37;17.40;64.50
33865;DHT22;20159;51.072;13.526;2023-01-01T08:35:03;17.50;64.70
33865;DHT22;20159;51.072;13.526;2023-01-01T08:37:28;17.50;63.80
33865;DHT22;20159;51.072;13.526;2023-01-01T08:39:54;17.70;63.80
33865;DHT22;20159;51.072;13.526;2023-01-01T08:42:19;17.70;63.60
33865;DHT22;20159;51.072;13.526;2023-01-01T08:44:45;17.80;63.20
33865;DHT22;20159;51.072;13.526;2023-01-01T08:47:17;17.90;63.00
33865;DHT22;20159;51.072;13.526;2023-01-01T08:49:43;17.90;62.60
33865;DHT22;20159;51.072;13.526;2023-01-01T08:52:08;18.00;62.80
33865;DHT22;20159;51.072;13.526;2023-01-01T08:54:34;18.00;62.50
33865;DHT22;20159;51.072;13.526;2023-01-01T08:56:59;18.10;62.30
33865;DHT22;20159;51.072;13.526;2023-01-01T08:59:25;18.10;62.10
33865;DHT22;20159;51.072;13.526;2023-01-01T09:01:50;18.10;62.40
33865;DHT22;20159;51.072;13.526;2023-01-01T09:04:16;18.10;62.30
33865;DHT22;20159;51.072;13.526;2023-01-01T09:06:41;18.20;62.00
33865;DHT22;20159;51.072;13.526;2023-01-01T09:09:07;18.20;62.00
33865;DHT22;20159;51.072;13.526;2023-01-01T09:11:32;18.30;62.10
33865;DHT22;20159;51.072;13.526;2023-01-01T09:13:58;18.30;61.70
33865;DHT22;20159;51.072;13.526;2023-01-01T09:16:24;18.30;61.80
33865;DHT22;20159;51.072;13.526;2023-01-01T09:18:49;18.30;62.00
33865;DHT22;20159;51.072;13.526;2023-01-01T09:21:15;18.30;62.60
33865;DHT22;20159;51.072;13.526;2023-01-01T09:23:42;18.30;61.90
33865;DHT22;20159;51.072;13.526;2023-01-01T09:26:11;18.40;62.00
33865;DHT22;20159;51.072;13.526;2023-01-01T09:28:37;18.40;61.70
33865;DHT22;20159;51.072;13.526;2023-01-01T09:31:03;18.40;61.90
33865;DHT22;20159;51.072;13.526;2023-01-01T09:33:31;18.40;61.60
33865;DHT22;20159;51.072;13.526;2023-01-01T09:38:48;18.50;60.70
33865;DHT22;20159;51.072;13.526;2023-01-01T09:41:24;18.50;61.50
33865;DHT22;20159;51.072;13.526;2023-01-01T09:44:15;18.60;60.10
33865;DHT22;20159;51.072;13.526;2023-01-01T09:46:44;18.60;61.20
33865;DHT22;20159;51.072;13.526;2023-01-01T09:49:15;18.60;61.40
33865;DHT22;20159;51.072;13.526;2023-01-01T09:51:43;18.70;61.00
33865;DHT22;20159;51.072;13.526;2023-01-01T09:54:36;18.80;61.00
33865;DHT22;20159;51.072;13.526;2023-01-01T09:57:06;18.80;60.40
33865;DHT22;20159;51.072;13.526;2023-01-01T09:59:34;19.00;60.90
33865;DHT22;20159;51.072;13.526;2023-01-01T10:02:03;19.10;60.60
33865;DHT22;20159;51.072;13.526;2023-01-01T10:07:26;19.30;60.10
33865;DHT22;20159;51.072;13.526;2023-01-01T10:15:22;19.60;58.80
33865;DHT22;20159;51.072;13.526;2023-01-01T10:17:50;19.70;58.20
33865;DHT22;20159;51.072;13.526;2023-01-01T10:20:43;19.80;58.20
33865;DHT22;20159;51.072;13.526;2023-01-01T10:23:43;19.90;58.40
33865;DHT22;20159;51.072;13.526;2023-01-01T10:26:16;20.10;58.10
33865;DHT22;20159;51.072;13.526;2023-01-01T10:31:35;20.20;56.50
33865;DHT22;20159;51.072;13.526;2023-01-01T10:34:22;20.20;56.90
33865;DHT22;20159;51.072;13.526;2023-01-01T10:36:52;20.10;56.30
33865;DHT22;20159;51.072;13.526;2023-01-01T10:39:18;20.10;56.60
33865;DHT22;20159;51.072;13.526;2023-01-01T10:41:44;17.70;56.00
33865;DHT22;20159;51.072;13.526;2023-01-01T10:44:11;20.10;57.20
33865;DHT22;20159;51.072;13.526;2023-01-01T10:46:43;20.10;56.90
33865;DHT22;20159;51.072;13.526;2023-01-01T10:49:10;20.10;56.30
33865;DHT22;20159;51.072;13.526;2023-01-01T10:51:50;20.10;56.60
33865;DHT22;20159;51.072;13.526;2023-01-01T10:54:38;20.10;56.40
33865;DHT22;20159;51.072;13.526;2023-01-01T10:59:52;20.20;55.80
33865;DHT22;20159;51.072;13.526;2023-01-01T11:02:20;20.30;57.40
33865;DHT22;20159;51.072;13.526;2023-01-01T11:04:46;20.30;57.20
33865;DHT22;20159;51.072;13.526;2023-01-01T11:07:23;20.40;56.30
33865;DHT22;20159;51.072;13.526;2023-01-01T11:09:49;20.50;55.80
33865;DHT22;20159;51.072;13.526;2023-01-01T11:12:19;20.50;56.30
33865;DHT22;20159;51.072;13.526;2023-01-01T11:14:51;20.60;55.50
33865;DHT22;20159;51.072;13.526;2023-01-01T11:17:29;20.70;56.10
33865;DHT22;20159;51.072;13.526;2023-01-01T11:19:59;20.70;55.50
33865;DHT22;20159;51.072;13.526;2023-01-01T11:25:15;20.80;54.80
33865;DHT22;20159;51.072;13.526;2023-01-01T11:27:41;20.80;55.20
33865;DHT22;20159;51.072;13.526;2023-01-01T11:30:33;20.80;55.10
33865;DHT22;20159;51.072;13.526;2023-01-01T11:33:00;20.80;54.60
33865;DHT22;20159;51.072;13.526;2023-01-01T11:35:29;20.80;54.80
33865;DHT22;20159;51.072;13.526;2023-01-01T11:37:57;20.80;55.10
33865;DHT22;20159;51.072;13.526;2023-01-01T11:40:31;20.70;55.00
33865;DHT22;20159;51.072;13.526;2023-01-01T11:43:00;20.70;54.40
33865;DHT22;20159;51.072;13.526;2023-01-01T11:45:32;20.70;54.80
33865;DHT22;20159;51.072;13.526;2023-01-01T11:48:01;20.70;54.60
33865;DHT22;20159;51.072;13.526;2023-01-01T11:50:31;20.60;54.60
33865;DHT22;20159;51.072;13.526;2023-01-01T11:53:15;20.60;55.30
33865;DHT22;20159;51.072;13.526;2023-01-01T11:55:47;20.60;55.10
33865;DHT22;20159;51.072;13.526;2023-01-01T12:01:12;20.70;55.50
33865;DHT22;20159;51.072;13.526;2023-01-01T12:06:25;20.80;55.10
33865;DHT22;20159;51.072;13.526;2023-01-01T12:09:02;20.80;54.60
33865;DHT22;20159;51.072;13.526;2023-01-01T12:11:47;20.80;54.20
33865;DHT22;20159;51.072;13.526;2023-01-01T12:14:23;20.90;54.00
33865;DHT22;20159;51.072;13.526;2023-01-01T12:17:00;20.90;53.90
33865;DHT22;20159;51.072;13.526;2023-01-01T12:19:34;20.90;53.70
33865;DHT22;20159;51.072;13.526;2023-01-01T12:22:04;20.90;53.90
33865;DHT22;20159;51.072;13.526;2023-01-01T12:24:34;20.90;53.80
33865;DHT22;20159;51.072;13.526;2023-01-01T12:27:27;20.90;54.10
33865;DHT22;20159;51.072;13.526;2023-01-01T12:30:20;20.90;54.20
33865;DHT22;20159;51.072;13.526;2023-01-01T12:33:07;20.90;53.50
33865;DHT22;20159;51.072;13.526;2023-01-01T12:41:07;20.70;53.70
33865;DHT22;20159;51.072;13.526;2023-01-01T12:46:43;20.60;53.70
33865;DHT22;20159;51.072;13.526;2023-01-01T12:52:06;20.50;53.80
33865;DHT22;20159;51.072;13.526;2023-01-01T12:55:00;20.50;54.50
33865;DHT22;20159;51.072;13.526;2023-01-01T12:57:48;20.50;54.00
33865;DHT22;20159;51.072;13.526;2023-01-01T13:00:18;20.40;54.40
33865;DHT22;20159;51.072;13.526;2023-01-01T13:02:51;20.40;54.60
33865;DHT22;20159;51.072;13.526;2023-01-01T13:05:22;20.30;54.70
33865;DHT22;20159;51.072;13.526;2023-01-01T13:07:52;20.30;54.70
33865;DHT22;20159;51.072;13.526;2023-01-01T13:10:29;20.20;54.80
33865;DHT22;20159;51.072;13.526;2023-01-01T13:12:56;20.20;54.80
33865;DHT22;20159;51.072;13.526;2023-01-01T13:18:07;20.10;54.60
33865;DHT22;20159;51.072;13.526;2023-01-01T13:39:51;19.50;56.20
33865;DHT22;20159;51.072;13.526;2023-01-01T13:56:22;19.10;57.00
33865;DHT22;20159;51.072;13.526;2023-01-01T14:01:51;19.10;57.40
33865;DHT22;20159;51.072;13.526;2023-01-01T14:04:42;19.00;57.50
33865;DHT22;20159;51.072;13.526;2023-01-01T14:07:31;18.90;57.60
33865;DHT22;20159;51.072;13.526;2023-01-01T14:10:36;18.80;57.60
33865;DHT22;20159;51.072;13.526;2023-01-01T14:15:32;18.70;57.50
33865;DHT22;20159;51.072;13.526;2023-01-01T14:18:00;18.60;57.80
33865;DHT22;20159;51.072;13.526;2023-01-01T14:23:10;18.50;57.90
33865;DHT22;20159;51.072;13.526;2023-01-01T14:25:37;18.40;57.80
33865;DHT22;20159;51.072;13.526;2023-01-01T14:28:04;18.40;57.70
33865;DHT22;20159;51.072;13.526;2023-01-01T14:30:36;18.30;58.00
33865;DHT22;20159;51.072;13.526;2023-01-01T14:33:01;18.20;58.10
33865;DHT22;20159;51.072;13.526;2023-01-01T14:35:28;18.20;58.40
33865;DHT22;20159;51.072;13.526;2023-01-01T14:37:54;18.10;58.00
33865;DHT22;20159;51.072;13.526;2023-01-01T14:40:24;18.10;58.40
33865;DHT22;20159;51.072;13.526;2023-01-01T14:43:04;18.00;58.50
33865;DHT22;20159;51.072;13.526;2023-01-01T14:45:33;18.00;58.60
33865;DHT22;20159;51.072;13.526;2023-01-01T14:48:00;18.00;58.90
33865;DHT22;20159;51.072;13.526;2023-01-01T14:50:30;17.90;58.90
33865;DHT22;20159;51.072;13.526;2023-01-01T14:53:05;17.90;59.10
33865;DHT22;20159;51.072;13.526;2023-01-01T14:55:37;17.80;59.00
33865;DHT22;20159;51.072;13.526;2023-01-01T14:58:03;17.70;58.90
33865;DHT22;20159;51.072;13.526;2023-01-01T15:00:31;17.70;59.30
33865;DHT22;20159;51.072;13.526;2023-01-01T15:03:26;17.70;59.30
33865;DHT22;20159;51.072;13.526;2023-01-01T15:06:00;17.60;59.50
33865;DHT22;20159;51.072;13.526;2023-01-01T15:08:25;17.50;60.60
33865;DHT22;20159;51.072;13.526;2023-01-01T15:10:52;17.50;60.30
33865;DHT22;20159;51.072;13.526;2023-01-01T15:13:20;17.40;59.60
33865;DHT22;20159;51.072;13.526;2023-01-01T15:15:49;17.40;59.90
33865;DHT22;20159;51.072;13.526;2023-01-01T15:18:41;17.40;60.00
33865;DHT22;20159;51.072;13.526;2023-01-01T15:23:59;17.30;60.00
33865;DHT22;20159;51.072;13.526;2023-01-01T15:26:30;17.30;60.10
33865;DHT22;20159;51.072;13.526;2023-01-01T15:28:58;17.30;60.20
33865;DHT22;20159;51.072;13.526;2023-01-01T15:31:41;17.20;60.40
33865;DHT22;20159;51.072;13.526;2023-01-01T15:36:45;17.20;60.90
33865;DHT22;20159;51.072;13.526;2023-01-01T15:39:11;17.20;60.70
33865;DHT22;20159;51.072;13.526;2023-01-01T15:41:48;17.10;60.80
33865;DHT22;20159;51.072;13.526;2023-01-01T15:44:27;17.10;61.20
33865;DHT22;20159;51.072;13.526;2023-01-01T15:47:03;17.10;60.90
33865;DHT22;20159;51.072;13.526;2023-01-01T15:49:29;17.00;60.90
33865;DHT22;20159;51.072;13.526;2023-01-01T15:52:00;17.00;61.10
33865;DHT22;20159;51.072;13.526;2023-01-01T15:54:27;17.00;61.30
33865;DHT22;20159;51.072;13.526;2023-01-01T15:56:52;17.00;61.30
33865;DHT22;20159;51.072;13.526;2023-01-01T15:59:26;16.90;61.20
33865;DHT22;20159;51.072;13.526;2023-01-01T16:02:12;16.90;61.60
33865;DHT22;20159;51.072;13.526;2023-01-01T16:04:38;16.90;61.70
33865;DHT22;20159;51.072;13.526;2023-01-01T16:07:06;16.90;61.60
33865;DHT22;20159;51.072;13.526;2023-01-01T16:09:39;16.90;61.70
33865;DHT22;20159;51.072;13.526;2023-01-01T16:12:04;16.90;61.70
33865;DHT22;20159;51.072;13.526;2023-01-01T16:14:31;16.80;61.80
33865;DHT22;20159;51.072;13.526;2023-01-01T16:16:57;16.80;62.00
33865;DHT22;20159;51.072;13.526;2023-01-01T16:19:27;16.80;62.10
33865;DHT22;20159;51.072;13.526;2023-01-01T16:21:53;16.70;62.20
33865;DHT22;20159;51.072;13.526;2023-01-01T16:24:19;16.70;62.40
33865;DHT22;20159;51.072;13.526;2023-01-01T16:26:45;16.60;62.40
33865;DHT22;20159;51.072;13.526;2023-01-01T16:29:11;16.60;62.50
33865;DHT22;20159;51.072;13.526;2023-01-01T16:31:37;16.50;62.50
33865;DHT22;20159;51.072;13.526;2023-01-01T16:34:03;16.50;62.70
33865;DHT22;20159;51.072;13.526;2023-01-01T16:36:30;16.40;63.00
33865;DHT22;20159;51.072;13.526;2023-01-01T16:38:56;16.30;62.90
33865;DHT22;20159;51.072;13.526;2023-01-01T16:41:22;16.30;63.00
33865;DHT22;20159;51.072;13.526;2023-01-01T16:43:48;16.20;63.10
33865;DHT22;20159;51.072;13.526;2023-01-01T16:46:14;17.70;64.00
33865;DHT22;20159;51.072;13.526;2023-01-01T16:48:40;16.10;63.40
33865;DHT22;20159;51.072;13.526;2023-01-01T16:51:08;16.00;63.50
33865;DHT22;20159;51.072;13.526;2023-01-01T16:53:38;16.00;63.70
33865;DHT22;20159;51.072;13.526;2023-01-01T16:56:04;15.90;63.80
33865;DHT22;20159;51.072;13.526;2023-01-01T16:58:30;15.90;64.00
33865;DHT22;20159;51.072;13.526;2023-01-01T17:00:59;15.90;64.00
33865;DHT22;20159;51.072;13.526;2023-01-01T17:03:25;15.80;64.30
33865;DHT22;20159;51.072;13.526;2023-01-01T17:05:50;15.80;64.30
33865;DHT22;20159;51.072;13.526;2023-01-01T17:08:16;15.80;64.40
33865;DHT22;20159;51.072;13.526;2023-01-01T17:10:41;15.70;64.40
33865;DHT22;20159;51.072;13.526;2023-01-01T17:13:07;15.70;64.60
33865;DHT22;20159;51.072;13.526;2023-01-01T17:15:32;15.70;64.70
33865;DHT22;20159;51.072;13.526;2023-01-01T17:17:58;15.70;64.70
33865;DHT22;20159;51.072;13.526;2023-01-01T17:20:24;15.70;64.90
33865;DHT22;20159;51.072;13.526;2023-01-01T17:22:50;15.60;65.00